sensor_id;sensor_type;location;lat;lon;timestamp;pressure;altitude;pressure_sealevel;temperature;humidity
75549;BME280;64133;56.002;37.208;2023-04-01T00:01:32;97606.91;;;2.12;79.01
75549;BME280;64133;56.002;37.208;2023-04-01T00:06:34;97609.85;;;2.07;78.95
75549;BME280;64133;56.002;37.208;2023-04-01T00:11:39;97612.67;;;2.04;79.11
75549;BME280;64133;56.002;37.208;2023-04-01T00:16:43;97612.20;;;2.05;79.28
75549;BME280;64133;56.002;37.208;2023-04-01T00:21:50;97613.05;;;2.05;79.20
75549;BME280;64133;56.002;37.208;2023-04-01T00:32:09;97607.13;;;2.03;79.21
75549;BME280;64133;56.002;37.208;2023-04-01T00:37:13;97609.81;;;1.85;79.04
75549;BME280;64133;56.002;37.208;2023-04-01T00:42:18;97609.56;;;1.82;79.19
75549;BME280;64133;56.002;37.208;2023-04-01T00:47:23;97598.83;;;1.87;79.33
75549;BME280;64133;56.002;37.208;2023-04-01T00:52:30;97594.84;;;1.88;79.29
75549;BME280;64133;56.002;37.208;2023-04-01T00:57:37;97592.12;;;1.84;79.25
75549;BME280;64133;56.002;37.208;2023-04-01T01:02:42;97592.12;;;1.90;79.45
75549;BME280;64133;56.002;37.208;2023-04-01T01:07:51;97529.28;;;1.51;79.59
75549;BME280;64133;56.002;37.208;2023-04-01T01:12:56;97594.49;;;1.93;79.70
75549;BME280;64133;56.002;37.208;2023-04-01T01:18:01;97593.42;;;1.95;79.71
75549;BME280;64133;56.002;37.208;2023-04-01T01:23:23;97593.06;;;1.83;79.85
75549;BME280;64133;56.002;37.208;2023-04-01T01:33:52;97594.97;;;1.92;79.95
75549;BME280;64133;56.002;37.208;2023-04-01T01:38:56;97592.81;;;1.81;79.78
75549;BME280;64133;56.002;37.208;2023-04-01T01:44:01;97602.28;;;1.87;79.96
75549;BME280;64133;56.002;37.208;2023-04-01T01:49:06;97601.20;;;1.84;79.91
75549;BME280;64133;56.002;37.208;2023-04-01T01:54:14;97604.02;;;1.87;79.87
75549;BME280;64133;56.002;37.208;2023-04-01T01:59:21;97602.38;;;1.86;79.89
75549;BME280;64133;56.002;37.208;2023-04-01T02:04:26;97604.62;;;1.85;79.79
75549;BME280;64133;56.002;37.208;2023-04-01T02:14:45;97601.43;;;1.87;79.95
75549;BME280;64133;56.002;37.208;2023-04-01T02:19:51;97599.56;;;1.83;80.19
75549;BME280;64133;56.002;37.208;2023-04-01T02:24:57;97602.03;;;1.85;80.25
75549;BME280;64133;56.002;37.208;2023-04-01T02:29:59;97604.62;;;1.85;80.36
75549;BME280;64133;56.002;37.208;2023-04-01T02:35:05;97606.05;;;1.89;80.44
75549;BME280;64133;56.002;37.208;2023-04-01T02:40:17;97612.32;;;1.92;80.38
75549;BME280;64133;56.002;37.208;2023-04-01T02:45:20;97608.42;;;1.92;80.39
75549;BME280;64133;56.002;37.208;2023-04-01T02:50:27;97617.86;;;1.93;80.44
75549;BME280;64133;56.002;37.208;2023-04-01T02:55:34;97618.69;;;1.88;80.45
75549;BME280;64133;56.002;37.208;2023-04-01T03:00:39;97622.33;;;1.91;80.48
75549;BME280;64133;56.002;37.208;2023-04-01T03:05:46;97627.90;;;1.92;80.46
75549;BME280;64133;56.002;37.208;2023-04-01T03:10:51;97612.76;;;1.80;80.59
75549;BME280;64133;56.002;37.208;2023-04-01T03:16:08;97636.16;;;1.97;80.58
75549;BME280;64133;56.002;37.208;2023-04-01T03:21:17;97634.61;;;1.94;80.55
75549;BME280;64133;56.002;37.208;2023-04-01T03:26:21;97633.56;;;1.97;80.58
75549;BME280;64133;56.002;37.208;2023-04-01T03:31:28;97636.64;;;2.02;80.60
75549;BME280;64133;56.002;37.208;2023-04-01T03:36:34;97632.88;;;2.06;80.48
75549;BME280;64133;56.002;37.208;2023-04-01T03:41:41;97642.41;;;2.00;80.46
75549;BME280;64133;56.002;37.208;2023-04-01T03:46:49;97647.03;;;2.02;80.51
75549;BME280;64133;56.002;37.208;2023-04-01T03:51:53;97658.12;;;2.04;80.38
75549;BME280;64133;56.002;37.208;2023-04-01T04:02:18;97650.93;;;2.13;80.32
75549;BME280;64133;56.002;37.208;2023-04-01T04:07:25;97668.06;;;2.16;80.20
75549;BME280;64133;56.002;37.208;2023-04-01T04:12:30;97672.56;;;2.14;80.08
75549;BME280;64133;56.002;37.208;2023-04-01T04:22:48;97676.36;;;2.43;79.87
75549;BME280;64133;56.002;37.208;2023-04-01T04:27:55;97686.41;;;2.48;79.71
75549;BME280;64133;56.002;37.208;2023-04-01T04:33:06;97692.11;;;2.53;79.48
75549;BME280;64133;56.002;37.208;2023-04-01T04:38:10;97698.61;;;2.53;79.46
75549;BME280;64133;56.002;37.208;2023-04-01T04:43:16;97702.38;;;2.60;79.45
75549;BME280;64133;56.002;37.208;2023-04-01T04:48:38;97701.80;;;2.62;79.44
75549;BME280;64133;56.002;37.208;2023-04-01T04:53:43;97705.35;;;2.61;79.32
75549;BME280;64133;56.002;37.208;2023-04-01T04:58:47;97710.67;;;2.71;79.33
75549;BME280;64133;56.002;37.208;2023-04-01T05:03:55;97708.66;;;2.80;78.96
75549;BME280;64133;56.002;37.208;2023-04-01T05:14:31;97715.83;;;3.21;78.24
75549;BME280;64133;56.002;37.208;2023-04-01T05:24:50;97722.71;;;3.71;76.78
75549;BME280;64133;56.002;37.208;2023-04-01T05:29:55;97727.63;;;3.86;76.03
75549;BME280;64133;56.002;37.208;2023-04-01T05:35:02;97736.13;;;3.93;75.69
75549;BME280;64133;56.002;37.208;2023-04-01T05:40:09;97741.31;;;3.99;75.19
75549;BME280;64133;56.002;37.208;2023-04-01T05:45:16;97745.01;;;3.91;75.22
75549;BME280;64133;56.002;37.208;2023-04-01T05:50:19;97742.41;;;3.96;74.93
75549;BME280;64133;56.002;37.208;2023-04-01T05:55:34;97750.56;;;4.24;74.52
75549;BME280;64133;56.002;37.208;2023-04-01T06:00:38;97742.28;;;4.45;73.70
75549;BME280;64133;56.002;37.208;2023-04-01T06:05:43;97744.27;;;4.68;73.43
75549;BME280;64133;56.002;37.208;2023-04-01T06:11:15;97749.82;;;4.69;72.52
75549;BME280;64133;56.002;37.208;2023-04-01T06:16:25;97744.02;;;5.02;72.29
75549;BME280;64133;56.002;37.208;2023-04-01T06:32:26;97761.06;;;6.78;67.94
75549;BME280;64133;56.002;37.208;2023-04-01T06:43:46;97763.67;;;6.35;66.94
75549;BME280;64133;56.002;37.208;2023-04-01T06:49:02;97775.11;;;6.24;67.75
75549;BME280;64133;56.002;37.208;2023-04-01T06:54:09;97776.77;;;6.45;66.40
75549;BME280;64133;56.002;37.208;2023-04-01T06:59:13;97778.11;;;7.98;63.71
75549;BME280;64133;56.002;37.208;2023-04-01T07:04:18;97786.62;;;8.45;61.98
75549;BME280;64133;56.002;37.208;2023-04-01T07:09:22;97790.77;;;8.74;60.67
75549;BME280;64133;56.002;37.208;2023-04-01T07:14:30;97789.30;;;8.04;60.47
75549;BME280;64133;56.002;37.208;2023-04-01T07:19:31;97788.66;;;9.29;59.02
75549;BME280;64133;56.002;37.208;2023-04-01T07:24:40;97790.66;;;9.10;57.62
75549;BME280;64133;56.002;37.208;2023-04-01T07:29:44;97789.72;;;9.49;57.44
75549;BME280;64133;56.002;37.208;2023-04-01T07:35:04;97790.34;;;10.72;55.43
75549;BME280;64133;56.002;37.208;2023-04-01T07:40:14;97790.73;;;12.39;52.08
75549;BME280;64133;56.002;37.208;2023-04-01T07:45:20;97798.12;;;11.93;50.97
75549;BME280;64133;56.002;37.208;2023-04-01T07:50:25;97794.16;;;11.46;52.18
75549;BME280;64133;56.002;37.208;2023-04-01T08:00:47;97810.06;;;10.40;52.98
75549;BME280;64133;56.002;37.208;2023-04-01T08:05:54;97818.63;;;9.41;54.60
75549;BME280;64133;56.002;37.208;2023-04-01T08:10:59;97821.45;;;9.21;55.07
75549;BME280;64133;56.002;37.208;2023-04-01T08:16:08;97820.75;;;9.41;54.47
75549;BME280;64133;56.002;37.208;2023-04-01T08:21:12;97821.69;;;10.21;53.20
75549;BME280;64133;56.002;37.208;2023-04-01T08:26:18;97826.19;;;13.05;49.46
75549;BME280;64133;56.002;37.208;2023-04-01T08:31:24;97831.53;;;17.01;41.94
75549;BME280;64133;56.002;37.208;2023-04-01T08:36:29;97822.77;;;20.02;36.24
75549;BME280;64133;56.002;37.208;2023-04-01T08:41:46;97822.73;;;16.87;40.38
75549;BME280;64133;56.002;37.208;2023-04-01T08:52:29;97823.27;;;18.97;33.53
75549;BME280;64133;56.002;37.208;2023-04-01T08:57:41;97826.27;;;16.26;37.59
75549;BME280;64133;56.002;37.208;2023-04-01T09:02:58;97824.08;;;16.94;36.40
75549;BME280;64133;56.002;37.208;2023-04-01T09:08:05;97834.50;;;15.38;37.66
75549;BME280;64133;56.002;37.208;2023-04-01T09:13:22;97827.84;;;14.82;38.81
75549;BME280;64133;56.002;37.208;2023-04-01T09:24:36;97830.36;;;13.96;40.44
75549;BME280;64133;56.002;37.208;2023-04-01T09:30:02;97853.45;;;13.05;40.79
75549;BME280;64133;56.002;37.208;2023-04-01T09:35:26;97854.76;;;12.68;41.26
75549;BME280;64133;56.002;37.208;2023-04-01T09:40:46;97854.61;;;13.74;39.42
75549;BME280;64133;56.002;37.208;2023-04-01T09:46:11;97857.16;;;13.53;39.03
75549;BME280;64133;56.002;37.208;2023-04-01T09:51:24;97853.17;;;13.72;38.02
75549;BME280;64133;56.002;37.208;2023-04-01T10:14:00;97881.98;;;13.52;38.33
75549;BME280;64133;56.002;37.208;2023-04-01T10:19:37;97878.75;;;14.67;38.06
75549;BME280;64133;56.002;37.208;2023-04-01T10:47:48;97889.06;;;19.75;29.87
75549;BME280;64133;56.002;37.208;2023-04-01T10:53:09;97898.92;;;19.50;28.53
75549;BME280;64133;56.002;37.208;2023-04-01T10:58:29;97903.77;;;18.55;29.39
75549;BME280;64133;56.002;37.208;2023-04-01T11:15:45;97906.06;;;13.57;34.61
75549;BME280;64133;56.002;37.208;2023-04-01T11:21:08;97894.67;;;14.01;34.93
75549;BME280;64133;56.002;37.208;2023-04-01T11:26:21;97907.86;;;13.61;35.84
75549;BME280;64133;56.002;37.208;2023-04-01T11:31:38;97902.38;;;18.46;31.31
75549;BME280;64133;56.002;37.208;2023-04-01T11:36:46;97901.83;;;17.89;29.89
75549;BME280;64133;56.002;37.208;2023-04-01T11:41:54;97905.23;;;18.45;29.16
75549;BME280;64133;56.002;37.208;2023-04-01T11:47:40;97923.92;;;13.59;33.64
75549;BME280;64133;56.002;37.208;2023-04-01T12:04:15;97918.51;;;11.82;37.78
75549;BME280;64133;56.002;37.208;2023-04-01T12:09:20;97925.01;;;11.51;38.32
75549;BME280;64133;56.002;37.208;2023-04-01T12:14:30;97914.63;;;10.96;39.20
75549;BME280;64133;56.002;37.208;2023-04-01T12:19:39;97911.36;;;10.23;40.53
75549;BME280;64133;56.002;37.208;2023-04-01T12:24:46;97916.88;;;10.46;40.89
75549;BME280;64133;56.002;37.208;2023-04-01T12:30:05;97915.28;;;10.19;41.26
75549;BME280;64133;56.002;37.208;2023-04-01T12:35:20;97932.05;;;9.80;41.62
75549;BME280;64133;56.002;37.208;2023-04-01T12:46:15;97948.66;;;9.33;43.03
75549;BME280;64133;56.002;37.208;2023-04-01T12:51:48;97953.78;;;9.38;43.10
75549;BME280;64133;56.002;37.208;2023-04-01T12:56:52;97949.67;;;9.40;43.23
75549;BME280;64133;56.002;37.208;2023-04-01T13:02:05;97947.95;;;9.09;43.68
75549;BME280;64133;56.002;37.208;2023-04-01T13:07:42;97955.34;;;8.73;44.46
75549;BME280;64133;56.002;37.208;2023-04-01T13:12:58;97952.89;;;8.44;44.93
75549;BME280;64133;56.002;37.208;2023-04-01T13:18:07;97963.91;;;8.75;45.25
75549;BME280;64133;56.002;37.208;2023-04-01T13:23:20;97966.94;;;8.39;45.62
75549;BME280;64133;56.002;37.208;2023-04-01T13:28:25;97968.84;;;8.47;46.27
75549;BME280;64133;56.002;37.208;2023-04-01T13:33:32;97979.11;;;8.30;46.53
75549;BME280;64133;56.002;37.208;2023-04-01T13:38:52;97977.30;;;8.17;47.36
75549;BME280;64133;56.002;37.208;2023-04-01T13:43:55;97983.86;;;8.17;47.87
75549;BME280;64133;56.002;37.208;2023-04-01T13:49:11;97985.51;;;8.18;47.98
75549;BME280;64133;56.002;37.208;2023-04-01T13:59:58;98005.38;;;8.44;47.61
75549;BME280;64133;56.002;37.208;2023-04-01T14:05:14;98014.05;;;8.41;47.50
75549;BME280;64133;56.002;37.208;2023-04-01T14:10:21;98011.83;;;8.36;47.41
75549;BME280;64133;56.002;37.208;2023-04-01T14:15:33;98015.02;;;8.30;47.42
75549;BME280;64133;56.002;37.208;2023-04-01T14:20:40;98022.28;;;8.22;47.34
75549;BME280;64133;56.002;37.208;2023-04-01T14:32:00;98024.67;;;8.16;47.47
75549;BME280;64133;56.002;37.208;2023-04-01T14:42:41;98033.77;;;7.98;47.89
75549;BME280;64133;56.002;37.208;2023-04-01T14:47:49;98044.48;;;7.91;47.49
75549;BME280;64133;56.002;37.208;2023-04-01T14:52:59;98048.50;;;7.85;47.50
75549;BME280;64133;56.002;37.208;2023-04-01T14:58:15;98058.66;;;7.65;47.78
75549;BME280;64133;56.002;37.208;2023-04-01T15:03:24;98059.01;;;7.56;48.57
75549;BME280;64133;56.002;37.208;2023-04-01T15:08:28;98066.73;;;7.38;49.18
75549;BME280;64133;56.002;37.208;2023-04-01T15:13:57;98068.23;;;7.31;49.90
75549;BME280;64133;56.002;37.208;2023-04-01T15:19:07;98076.25;;;7.29;50.82
75549;BME280;64133;56.002;37.208;2023-04-01T15:24:10;98081.97;;;7.29;51.69
75549;BME280;64133;56.002;37.208;2023-04-01T15:29:37;98086.16;;;7.26;52.70
75549;BME280;64133;56.002;37.208;2023-04-01T15:34:41;98089.00;;;7.19;53.52
75549;BME280;64133;56.002;37.208;2023-04-01T15:39:51;98102.20;;;7.17;54.14
75549;BME280;64133;56.002;37.208;2023-04-01T15:45:07;98114.53;;;7.01;54.54
75549;BME280;64133;56.002;37.208;2023-04-01T15:50:25;98120.69;;;6.91;55.08
75549;BME280;64133;56.002;37.208;2023-04-01T15:55:29;98136.68;;;6.72;56.70
75549;BME280;64133;56.002;37.208;2023-04-01T16:00:38;98137.63;;;6.56;58.16
75549;BME280;64133;56.002;37.208;2023-04-01T16:05:42;98141.03;;;6.47;59.63
75549;BME280;64133;56.002;37.208;2023-04-01T16:11:11;98143.36;;;6.40;60.46
75549;BME280;64133;56.002;37.208;2023-04-01T16:16:21;98148.45;;;6.42;61.38
75549;BME280;64133;56.002;37.208;2023-04-01T16:21:33;98153.34;;;6.41;61.95
75549;BME280;64133;56.002;37.208;2023-04-01T16:26:35;98154.61;;;6.25;62.06
75549;BME280;64133;56.002;37.208;2023-04-01T16:31:46;98159.40;;;6.20;63.29
75549;BME280;64133;56.002;37.208;2023-04-01T16:36:48;98166.66;;;6.17;64.44
75549;BME280;64133;56.002;37.208;2023-04-01T16:41:57;98166.28;;;6.21;64.94
75549;BME280;64133;56.002;37.208;2023-04-01T16:47:05;98172.13;;;6.19;65.07
75549;BME280;64133;56.002;37.208;2023-04-01T16:52:17;98169.80;;;6.05;65.50
75549;BME280;64133;56.002;37.208;2023-04-01T16:57:23;98169.98;;;5.98;66.05
75549;BME280;64133;56.002;37.208;2023-04-01T17:02:28;98169.84;;;5.99;66.96
75549;BME280;64133;56.002;37.208;2023-04-01T17:07:43;98170.42;;;6.03;67.58
75549;BME280;64133;56.002;37.208;2023-04-01T17:12:47;98175.59;;;5.88;66.64
75549;BME280;64133;56.002;37.208;2023-04-01T17:17:53;98170.27;;;5.84;68.08
75549;BME280;64133;56.002;37.208;2023-04-01T17:22:58;98176.80;;;5.84;68.84
75549;BME280;64133;56.002;37.208;2023-04-01T17:28:05;98189.14;;;5.82;68.89
75549;BME280;64133;56.002;37.208;2023-04-01T17:33:17;98191.33;;;5.71;69.30
75549;BME280;64133;56.002;37.208;2023-04-01T17:38:34;98192.26;;;5.70;69.77
75549;BME280;64133;56.002;37.208;2023-04-01T17:43:28;98189.17;;;5.76;70.29
75549;BME280;64133;56.002;37.208;2023-04-01T17:48:38;98189.75;;;5.74;69.68
75549;BME280;64133;56.002;37.208;2023-04-01T17:53:45;98202.84;;;5.68;70.77
75549;BME280;64133;56.002;37.208;2023-04-01T17:58:51;98192.16;;;5.71;70.77
75549;BME280;64133;56.002;37.208;2023-04-01T18:09:48;98194.50;;;5.74;71.31
75549;BME280;64133;56.002;37.208;2023-04-01T18:15:12;98206.73;;;5.79;71.34
75549;BME280;64133;56.002;37.208;2023-04-01T18:20:39;98218.39;;;5.70;71.30
75549;BME280;64133;56.002;37.208;2023-04-01T18:25:43;98228.48;;;5.69;71.70
75549;BME280;64133;56.002;37.208;2023-04-01T18:30:53;98234.55;;;5.69;71.98
75549;BME280;64133;56.002;37.208;2023-04-01T18:35:59;98232.20;;;5.66;71.98
75549;BME280;64133;56.002;37.208;2023-04-01T18:41:12;98232.65;;;5.66;72.50
75549;BME280;64133;56.002;37.208;2023-04-01T18:46:19;98236.81;;;5.68;72.70
75549;BME280;64133;56.002;37.208;2023-04-01T18:51:25;98242.64;;;5.61;72.73
75549;BME280;64133;56.002;37.208;2023-04-01T18:56:30;98244.42;;;5.60;72.75
75549;BME280;64133;56.002;37.208;2023-04-01T19:01:39;98258.20;;;5.57;72.66
75549;BME280;64133;56.002;37.208;2023-04-01T19:06:45;98260.81;;;5.57;73.42
75549;BME280;64133;56.002;37.208;2023-04-01T19:12:06;98266.05;;;5.62;73.55
75549;BME280;64133;56.002;37.208;2023-04-01T19:17:10;98271.64;;;5.58;73.82
75549;BME280;64133;56.002;37.208;2023-04-01T19:22:21;98279.21;;;5.61;74.09
75549;BME280;64133;56.002;37.208;2023-04-01T19:27:29;98275.08;;;5.58;74.51
75549;BME280;64133;56.002;37.208;2023-04-01T19:32:39;98283.12;;;5.61;74.80
75549;BME280;64133;56.002;37.208;2023-04-01T19:37:45;98279.58;;;5.56;74.74
75549;BME280;64133;56.002;37.208;2023-04-01T19:42:50;98279.83;;;5.59;75.07
75549;BME280;64133;56.002;37.208;2023-04-01T19:48:01;98280.66;;;5.59;75.20
75549;BME280;64133;56.002;37.208;2023-04-01T19:53:11;98286.14;;;5.45;74.72
75549;BME280;64133;56.002;37.208;2023-04-01T19:58:16;98282.22;;;5.45;75.80
75549;BME280;64133;56.002;37.208;2023-04-01T20:03:32;98291.70;;;5.51;75.52
75549;BME280;64133;56.002;37.208;2023-04-01T20:08:38;98284.45;;;5.44;76.30
75549;BME280;64133;56.002;37.208;2023-04-01T20:13:46;98285.64;;;5.40;76.24
75549;BME280;64133;56.002;37.208;2023-04-01T20:18:51;98287.08;;;5.38;76.86
75549;BME280;64133;56.002;37.208;2023-04-01T20:23:58;98289.35;;;5.32;76.91
75549;BME280;64133;56.002;37.208;2023-04-01T20:29:12;98293.73;;;5.37;77.35
75549;BME280;64133;56.002;37.208;2023-04-01T20:40:17;98284.37;;;5.23;77.63
75549;BME280;64133;56.002;37.208;2023-04-01T20:45:30;98285.19;;;5.29;78.00
75549;BME280;64133;56.002;37.208;2023-04-01T20:50:34;98279.72;;;5.21;78.46
75549;BME280;64133;56.002;37.208;2023-04-01T21:01:15;98293.01;;;5.12;78.84
75549;BME280;64133;56.002;37.208;2023-04-01T21:11:53;98302.52;;;5.24;79.09
75549;BME280;64133;56.002;37.208;2023-04-01T21:16:58;98305.47;;;5.25;78.99
75549;BME280;64133;56.002;37.208;2023-04-01T21:22:21;98319.38;;;5.32;79.21
75549;BME280;64133;56.002;37.208;2023-04-01T21:27:32;98318.42;;;5.33;79.10
75549;BME280;64133;56.002;37.208;2023-04-01T21:32:48;98320.80;;;5.36;79.09
75549;BME280;64133;56.002;37.208;2023-04-01T21:38:05;98329.70;;;5.44;78.93
75549;BME280;64133;56.002;37.208;2023-04-01T21:43:16;98320.55;;;5.39;78.98
75549;BME280;64133;56.002;37.208;2023-04-01T21:48:45;98327.66;;;5.48;79.29
75549;BME280;64133;56.002;37.208;2023-04-01T21:54:00;98323.04;;;5.51;79.22
75549;BME280;64133;56.002;37.208;2023-04-01T22:05:03;98320.42;;;5.51;79.08
75549;BME280;64133;56.002;37.208;2023-04-01T22:10:12;98326.86;;;5.53;79.37
75549;BME280;64133;56.002;37.208;2023-04-01T22:15:20;98326.86;;;5.53;79.05
75549;BME280;64133;56.002;37.208;2023-04-01T22:20:27;98331.58;;;5.48;78.85
75549;BME280;64133;56.002;37.208;2023-04-01T22:25:33;98324.70;;;5.47;78.98
75549;BME280;64133;56.002;37.208;2023-04-01T22:30:38;98335.62;;;5.46;78.97
75549;BME280;64133;56.002;37.208;2023-04-01T22:35:44;98339.78;;;5.54;79.30
75549;BME280;64133;56.002;37.208;2023-04-01T22:40:50;98348.32;;;5.57;79.40
75549;BME280;64133;56.002;37.208;2023-04-01T22:46:21;98341.22;;;5.59;79.41
75549;BME280;64133;56.002;37.208;2023-04-01T22:51:37;98334.22;;;5.53;79.32
75549;BME280;64133;56.002;37.208;2023-04-01T22:56:34;98343.69;;;5.60;79.63
75549;BME280;64133;56.002;37.208;2023-04-01T23:01:40;98335.26;;;5.57;79.35
75549;BME280;64133;56.002;37.208;2023-04-01T23:06:46;98335.03;;;5.60;79.60
75549;BME280;64133;56.002;37.208;2023-04-01T23:11:51;98340.50;;;5.62;79.41
75549;BME280;64133;56.002;37.208;2023-04-01T23:16:57;98344.52;;;5.61;79.76
75549;BME280;64133;56.002;37.208;2023-04-01T23:22:03;98342.52;;;5.59;79.78
75549;BME280;64133;56.002;37.208;2023-04-01T23:27:09;98353.20;;;5.50;80.05
75549;BME280;64133;56.002;37.208;2023-04-01T23:32:18;98353.69;;;5.49;80.36
75549;BME280;64133;56.002;37.208;2023-04-01T23:37:22;98353.22;;;5.44;80.59
75549;BME280;64133;56.002;37.208;2023-04-01T23:42:27;98348.69;;;5.46;81.06
75549;BME280;64133;56.002;37.208;2023-04-01T23:47:32;98353.20;;;5.55;81.63
75549;BME280;64133;56.002;37.208;2023-04-01T23:52:39;98353.20;;;5.55;81.56
75549;BME280;64133;56.002;37.208;2023-04-01T23:57:41;98343.23;;;5.55;81.60
